createdAt,value
2018-11-03T00:04:25.410Z,11.33
2018-11-03T00:06:53.924Z,12.33
2018-11-03T00:09:22.419Z,11.43
2018-11-03T00:11:50.968Z,12.23
2018-11-03T00:14:19.476Z,15.00
2018-11-03T00:16:47.995Z,10.10
2018-11-03T00:19:16.479Z,14.67
2018-11-03T00:21:44.946Z,11.50
2018-11-03T00:24:13.481Z,11.37
2018-11-03T00:26:42.088Z,12.50
2018-11-03T00:29:10.563Z,11.17
2018-11-03T00:31:39.072Z,10.43
2018-11-03T00:34:07.687Z,10.33
2018-11-03T00:36:36.199Z,10.17
2018-11-03T00:39:07.888Z,11.00
2018-11-03T00:41:36.350Z,11.73
2018-11-03T00:44:05.397Z,8.17
2018-11-03T00:46:34.013Z,10.47
2018-11-03T00:49:02.850Z,11.17
2018-11-03T00:51:31.333Z,9.70
2018-11-03T00:53:59.831Z,12.17
2018-11-03T00:56:28.326Z,9.27
2018-11-03T00:58:57.097Z,9.73
2018-11-03T01:01:25.569Z,9.67
2018-11-03T01:03:54.150Z,8.80
2018-11-03T01:06:22.620Z,9.83
2018-11-03T01:08:51.152Z,10.77
2018-11-03T01:11:19.619Z,9.53
2018-11-03T01:13:48.129Z,6.80
2018-11-03T01:16:16.592Z,8.57
2018-11-03T01:18:45.058Z,8.70
2018-11-03T01:21:13.521Z,9.83
2018-11-03T01:23:42.028Z,13.53
2018-11-03T01:26:10.439Z,8.87
2018-11-03T01:28:38.904Z,6.80
2018-11-03T01:31:07.355Z,9.43
2018-11-03T01:33:35.808Z,8.27
2018-11-03T01:36:04.285Z,6.90
2018-11-03T01:38:32.744Z,8.87
2018-11-03T01:41:01.225Z,8.00
2018-11-03T01:43:29.688Z,9.63
2018-11-03T01:45:58.166Z,8.03
2018-11-03T01:48:26.624Z,8.43
2018-11-03T01:50:55.087Z,9.57
2018-11-03T01:53:23.539Z,10.13
2018-11-03T01:55:51.999Z,9.70
2018-11-03T01:58:20.469Z,11.90
2018-11-03T02:00:48.941Z,8.57
2018-11-03T02:03:17.428Z,7.00
2018-11-03T02:05:45.945Z,8.73
2018-11-03T02:08:14.414Z,8.77
2018-11-03T02:10:42.931Z,11.80
2018-11-03T02:13:11.373Z,11.00
2018-11-03T02:15:39.877Z,11.10
2018-11-03T02:18:08.310Z,10.67
2018-11-03T02:20:36.758Z,8.77
2018-11-03T02:23:05.254Z,11.27
2018-11-03T02:25:33.744Z,10.87
2018-11-03T02:28:02.177Z,9.03
2018-11-03T02:30:30.636Z,9.33
2018-11-03T02:32:59.151Z,9.80
2018-11-03T02:35:27.572Z,9.60
2018-11-03T02:37:56.045Z,9.50
2018-11-03T02:40:24.496Z,10.30
2018-11-03T02:42:52.936Z,13.87
2018-11-03T02:45:21.438Z,9.50
2018-11-03T02:47:49.897Z,12.93
2018-11-03T02:50:18.374Z,12.73
2018-11-03T02:52:46.970Z,11.13
2018-11-03T02:55:15.409Z,11.57
2018-11-03T02:57:43.874Z,13.10
2018-11-03T03:00:12.551Z,10.80
2018-11-03T03:02:41.004Z,10.27
2018-11-03T03:05:10.435Z,11.97
2018-11-03T03:07:38.897Z,11.90
2018-11-03T03:10:08.829Z,10.13
2018-11-03T03:12:37.447Z,14.83
2018-11-03T03:15:07.192Z,13.70
2018-11-03T03:17:35.681Z,10.90
2018-11-03T03:20:04.555Z,11.60
2018-11-03T03:22:33.022Z,18.83
2018-11-03T03:25:01.468Z,10.90
2018-11-03T03:27:29.900Z,12.33
2018-11-03T03:29:58.336Z,10.10
2018-11-03T03:32:26.817Z,10.57
2018-11-03T03:34:56.297Z,12.30
2018-11-03T03:37:24.865Z,12.77
2018-11-03T03:39:53.330Z,12.80
2018-11-03T03:42:22.073Z,11.57
2018-11-03T03:44:50.638Z,9.47
2018-11-03T03:47:19.156Z,13.57
2018-11-03T03:49:47.585Z,12.17
2018-11-03T03:52:16.070Z,13.67
2018-11-03T03:54:44.509Z,10.97
2018-11-03T03:57:12.972Z,16.10
2018-11-03T03:59:41.454Z,13.03
2018-11-03T04:02:09.913Z,13.57
2018-11-03T04:04:38.403Z,11.50
2018-11-03T04:07:07.172Z,13.80
2018-11-03T04:09:35.658Z,12.93
2018-11-03T04:12:04.156Z,10.50
2018-11-03T04:14:32.614Z,14.13
2018-11-03T04:17:01.067Z,13.50
2018-11-03T04:19:29.632Z,13.60
2018-11-03T04:21:58.158Z,14.20
2018-11-03T04:24:26.625Z,13.17
2018-11-03T04:26:55.118Z,12.10
2018-11-03T04:29:23.669Z,12.27
2018-11-03T04:31:52.148Z,12.00
2018-11-03T04:34:20.629Z,14.93
2018-11-03T04:36:49.080Z,12.07
2018-11-03T04:39:17.532Z,13.03
2018-11-03T04:41:46.032Z,13.77
2018-11-03T04:44:14.473Z,16.07
2018-11-03T04:46:42.916Z,12.60
2018-11-03T04:49:11.829Z,13.37
2018-11-03T04:51:40.300Z,12.60
2018-11-03T04:54:08.774Z,12.60
2018-11-03T04:56:37.262Z,14.73
2018-11-03T04:59:06.060Z,16.77
2018-11-03T05:01:34.663Z,13.33
2018-11-03T05:04:03.116Z,14.47
2018-11-03T05:06:31.583Z,14.10
2018-11-03T05:09:00.040Z,12.37
2018-11-03T05:11:28.478Z,15.47
2018-11-03T05:13:56.939Z,14.40
2018-11-03T05:16:25.400Z,18.97
2018-11-03T05:18:53.898Z,16.07
2018-11-03T05:21:22.347Z,13.97
2018-11-03T05:23:50.827Z,14.30
2018-11-03T05:26:19.305Z,15.43
2018-11-03T05:28:47.781Z,47.63
2018-11-03T05:31:16.499Z,19.80
2018-11-03T05:33:45.010Z,15.27
2018-11-03T05:36:13.459Z,13.37
2018-11-03T05:38:41.990Z,14.30
2018-11-03T05:41:10.466Z,16.97
2018-11-03T05:43:38.939Z,16.00
2018-11-03T05:46:07.439Z,15.40
2018-11-03T05:48:35.962Z,89.90
2018-11-03T05:51:04.408Z,16.33
2018-11-03T05:53:32.865Z,18.80
2018-11-03T05:56:01.346Z,19.13
2018-11-03T05:58:29.818Z,19.17
2018-11-03T06:00:58.304Z,18.37
2018-11-03T06:03:26.779Z,19.93
2018-11-03T06:05:55.944Z,20.00
2018-11-03T06:08:24.451Z,18.27
2018-11-03T06:10:52.948Z,19.50
2018-11-03T06:13:21.421Z,23.00
2018-11-03T06:15:49.886Z,20.47
2018-11-03T06:18:18.371Z,20.20
2018-11-03T06:20:46.863Z,17.03
2018-11-03T06:23:15.322Z,17.40
2018-11-03T06:25:43.772Z,19.83
2018-11-03T06:28:12.265Z,16.23
2018-11-03T06:30:40.702Z,16.37
2018-11-03T06:33:09.191Z,19.40
2018-11-03T06:35:37.666Z,22.17
2018-11-03T06:38:06.458Z,17.63
2018-11-03T06:40:35.058Z,19.43
2018-11-03T06:43:03.513Z,17.53
2018-11-03T06:45:31.972Z,21.00
2018-11-03T06:48:00.645Z,18.37
2018-11-03T06:50:29.094Z,20.77
2018-11-03T06:52:57.593Z,22.40
2018-11-03T06:55:26.046Z,17.83
2018-11-03T06:57:54.510Z,16.80
2018-11-03T07:00:23.495Z,19.70
2018-11-03T07:02:51.967Z,20.30
2018-11-03T07:05:20.557Z,23.53
2018-11-03T07:07:48.990Z,17.83
2018-11-03T07:10:17.537Z,20.53
2018-11-03T07:12:46.123Z,18.80
2018-11-03T07:15:14.490Z,22.87
2018-11-03T07:17:42.994Z,23.83
2018-11-03T07:20:12.596Z,20.67
2018-11-03T07:22:41.529Z,25.17
2018-11-03T07:25:10.427Z,23.07
2018-11-03T07:27:38.906Z,29.70
2018-11-03T07:30:09.871Z,22.47
2018-11-03T07:32:38.405Z,27.50
2018-11-03T07:35:07.210Z,29.70
2018-11-03T07:37:35.782Z,27.27
2018-11-03T07:40:05.426Z,26.37
2018-11-03T07:42:33.909Z,26.30
2018-11-03T07:45:02.356Z,25.73
2018-11-03T07:47:30.901Z,29.27
2018-11-03T07:49:59.362Z,35.90
2018-11-03T07:52:28.754Z,29.30
2018-11-03T07:54:57.319Z,23.80
2018-11-03T07:57:25.769Z,27.80
2018-11-03T07:59:54.334Z,27.00
2018-11-03T08:02:22.826Z,27.93
2018-11-03T08:04:51.280Z,30.97
2018-11-03T08:07:19.764Z,29.23
2018-11-03T08:09:48.291Z,30.00
2018-11-03T08:12:16.734Z,32.23
2018-11-03T08:14:45.215Z,32.13
2018-11-03T08:17:13.809Z,36.20
2018-11-03T08:19:42.262Z,30.57
2018-11-03T08:22:10.704Z,31.57
2018-11-03T08:24:39.186Z,31.63
2018-11-03T08:27:07.637Z,32.70
2018-11-03T08:29:36.103Z,31.97
2018-11-03T08:32:04.712Z,30.57
2018-11-03T08:34:33.289Z,42.17
2018-11-03T08:37:01.805Z,37.70
2018-11-03T08:39:30.327Z,30.40
2018-11-03T08:41:58.724Z,29.50
2018-11-03T08:44:27.169Z,31.20
2018-11-03T08:46:55.697Z,25.53
2018-11-03T08:49:24.206Z,23.33
2018-11-03T08:51:52.665Z,21.63
2018-11-03T08:54:21.198Z,26.10
2018-11-03T08:56:49.683Z,20.80
2018-11-03T08:59:18.314Z,21.30
2018-11-03T09:01:46.773Z,19.93
2018-11-03T09:04:15.342Z,19.57
2018-11-03T09:06:43.861Z,18.27
2018-11-03T09:09:12.376Z,17.73
2018-11-03T09:11:40.816Z,23.80
2018-11-03T09:14:09.314Z,20.50
2018-11-03T09:16:37.715Z,19.67
2018-11-03T09:19:06.382Z,16.27
2018-11-03T09:21:35.010Z,16.57
2018-11-03T09:24:03.463Z,16.30
2018-11-03T09:26:32.039Z,16.07
2018-11-03T09:29:00.530Z,14.90
2018-11-03T09:31:29.009Z,11.03
2018-11-03T09:33:57.475Z,13.67
2018-11-03T09:36:26.294Z,12.87
2018-11-03T09:38:55.001Z,11.60
2018-11-03T09:41:23.375Z,10.60
2018-11-03T09:43:52.019Z,12.10
2018-11-03T09:46:20.519Z,13.17
2018-11-03T09:48:49.024Z,11.53
2018-11-03T09:51:17.638Z,15.07
2018-11-03T09:53:46.131Z,11.30
2018-11-03T09:56:14.689Z,12.00
2018-11-03T09:58:43.188Z,12.53
2018-11-03T10:01:11.627Z,9.63
2018-11-03T10:03:40.112Z,10.10
2018-11-03T10:06:08.629Z,10.57
2018-11-03T10:08:37.414Z,10.63
2018-11-03T10:11:05.985Z,12.53
2018-11-03T10:13:34.432Z,11.50
2018-11-03T10:16:02.987Z,11.63
2018-11-03T10:18:31.444Z,10.93
2018-11-03T10:21:00.045Z,9.37
2018-11-03T10:23:28.492Z,9.90
2018-11-03T10:25:56.933Z,11.03
2018-11-03T10:28:25.396Z,14.07
2018-11-03T10:30:53.847Z,10.57
2018-11-03T10:33:22.348Z,9.60
2018-11-03T10:35:50.780Z,12.67
2018-11-03T10:38:19.232Z,10.67
2018-11-03T10:40:47.800Z,9.03
2018-11-03T10:43:16.298Z,10.20
2018-11-03T10:45:44.805Z,8.97
2018-11-03T10:48:13.288Z,12.40
2018-11-03T10:50:41.933Z,11.97
2018-11-03T11:12:46.297Z,7.40
2018-11-03T11:15:14.798Z,13.37
2018-11-03T11:17:43.337Z,8.77
2018-11-03T11:20:11.871Z,7.10
2018-11-03T11:22:40.344Z,9.37
2018-11-03T11:25:10.373Z,10.07
2018-11-03T11:27:38.804Z,7.27
2018-11-03T11:30:09.615Z,9.50
2018-11-03T11:32:38.151Z,9.00
2018-11-03T11:35:06.985Z,5.20
2018-11-03T11:37:35.755Z,8.23
2018-11-03T11:40:04.682Z,7.67
2018-11-03T11:42:33.591Z,7.47
2018-11-03T11:45:02.338Z,5.30
2018-11-03T11:47:30.822Z,5.87
2018-11-03T11:49:59.290Z,4.53
2018-11-03T11:52:27.764Z,5.43
2018-11-03T11:54:56.325Z,4.33
2018-11-03T11:57:24.702Z,4.50
2018-11-03T11:59:53.218Z,5.40
2018-11-03T12:02:21.730Z,8.47
2018-11-03T12:04:50.178Z,6.87
2018-11-03T12:07:18.659Z,6.10
2018-11-03T12:09:47.260Z,6.67
2018-11-03T12:12:15.805Z,5.63
2018-11-03T12:14:44.273Z,5.83
2018-11-03T12:17:12.749Z,4.70
2018-11-03T12:19:41.203Z,6.13
2018-11-03T12:22:09.655Z,4.87
2018-11-03T15:42:46.589Z,16.13
2018-11-03T15:45:16.441Z,18.77
2018-11-03T15:47:45.538Z,20.10
2018-11-03T15:50:14.838Z,16.03
2018-11-03T15:52:43.897Z,17.33
2018-11-03T15:55:12.538Z,14.80
2018-11-03T15:57:41.012Z,14.07
2018-11-03T16:03:30.883Z,14.63
2018-11-03T16:05:59.420Z,17.43
2018-11-03T16:08:31.806Z,20.37
2018-11-03T16:11:00.298Z,17.63
2018-11-03T16:16:50.298Z,22.37
2018-11-03T16:19:18.876Z,21.07
2018-11-03T16:21:47.394Z,17.30
2018-11-03T16:24:15.882Z,17.80
2018-11-03T16:26:44.437Z,19.97
2018-11-03T16:29:12.893Z,18.87
2018-11-03T16:31:41.396Z,17.13
2018-11-03T16:34:10.023Z,17.83
2018-11-03T16:36:38.570Z,19.63
2018-11-03T16:39:09.632Z,18.10
2018-11-03T16:41:38.130Z,18.73
2018-11-03T16:44:06.975Z,20.67
2018-11-03T16:46:35.586Z,18.93
2018-11-03T16:49:04.094Z,18.93
2018-11-03T16:51:32.552Z,20.47
2018-11-03T16:54:01.056Z,21.47
2018-11-03T16:56:29.590Z,17.63
2018-11-03T16:58:58.037Z,19.20
2018-11-03T17:01:26.533Z,19.03
2018-11-03T17:03:55.061Z,20.03
2018-11-03T17:06:23.551Z,27.90
2018-11-03T17:08:52.037Z,36.80
2018-11-03T17:11:21.253Z,26.83
2018-11-03T17:13:49.777Z,22.97
2018-11-03T17:16:18.285Z,24.07
2018-11-03T17:18:48.263Z,23.00
2018-11-03T17:21:16.731Z,23.97
2018-11-03T17:23:45.349Z,20.77
2018-11-03T17:26:13.884Z,21.77
2018-11-03T17:28:42.362Z,20.50
2018-11-03T17:31:10.985Z,25.17
2018-11-03T17:33:39.443Z,24.37
2018-11-03T17:36:07.910Z,24.63
2018-11-03T17:38:36.359Z,25.43
2018-11-03T17:41:05.106Z,21.53
2018-11-03T17:43:33.716Z,23.20
2018-11-03T17:46:02.293Z,25.53
2018-11-03T17:48:31.915Z,24.97
2018-11-03T17:51:00.622Z,28.20
2018-11-03T17:53:29.076Z,25.67
2018-11-03T17:55:57.553Z,46.30
2018-11-03T17:58:26.021Z,24.93
2018-11-03T18:00:55.236Z,22.20
2018-11-03T18:03:23.484Z,27.33
2018-11-03T18:12:35.836Z,24.07
2018-11-03T18:15:04.301Z,21.33
2018-11-03T18:17:32.792Z,21.83
2018-11-03T18:20:01.226Z,23.03
2018-11-03T18:25:51.185Z,23.87
2018-11-03T18:28:19.681Z,21.23
2018-11-03T18:30:48.219Z,21.73
2018-11-03T18:33:16.718Z,24.67
2018-11-03T18:35:45.353Z,23.97
2018-11-03T18:38:13.980Z,20.27
2018-11-03T18:40:42.455Z,22.23
2018-11-03T18:43:10.929Z,24.00
2018-11-03T18:45:39.447Z,26.37
2018-11-03T18:48:07.964Z,21.57
2018-11-03T18:50:39.626Z,23.20
2018-11-03T18:53:08.108Z,27.10
2018-11-03T18:55:36.761Z,24.60
2018-11-03T18:58:05.318Z,24.80
2018-11-03T19:00:33.769Z,25.67
2018-11-03T19:03:02.380Z,22.20
2018-11-03T19:05:31.473Z,28.80
2018-11-03T19:08:00.011Z,24.20
2018-11-03T19:10:29.141Z,23.93
2018-11-03T19:12:58.006Z,25.07
2018-11-03T19:15:27.261Z,24.80
2018-11-03T19:17:55.764Z,25.50
2018-11-03T19:20:24.654Z,25.87
2018-11-03T19:22:53.178Z,25.37
2018-11-03T19:25:21.633Z,26.10
2018-11-03T19:27:50.105Z,26.17
2018-11-03T19:30:18.953Z,26.07
2018-11-03T19:32:49.312Z,26.17
2018-11-03T19:35:17.781Z,35.63
2018-11-03T19:37:46.248Z,33.50
2018-11-03T19:40:15.029Z,31.63
2018-11-03T19:42:43.632Z,30.27
2018-11-03T19:45:15.196Z,27.47
2018-11-03T19:47:43.629Z,25.33
2018-11-03T19:50:12.584Z,25.27
2018-11-03T19:52:41.859Z,26.40
2018-11-03T19:55:10.356Z,28.63
2018-11-03T19:57:38.890Z,28.37
2018-11-03T20:00:10.013Z,24.30
2018-11-03T20:02:39.312Z,25.20
2018-11-03T20:05:08.677Z,27.43
2018-11-03T20:07:37.264Z,28.70
2018-11-03T20:10:07.352Z,29.33
2018-11-03T20:12:35.961Z,26.10
2018-11-03T20:15:05.863Z,28.83
2018-11-03T20:17:34.372Z,26.40
2018-11-03T20:20:03.043Z,25.20
2018-11-03T20:22:32.154Z,25.53
2018-11-03T20:25:01.837Z,29.20
2018-11-03T20:27:30.276Z,26.07
2018-11-03T20:29:58.734Z,31.83
2018-11-03T20:32:30.841Z,37.47
2018-11-03T20:34:59.317Z,38.70
2018-11-03T20:37:27.801Z,34.60
2018-11-03T20:39:56.368Z,29.93
2018-11-03T20:42:24.849Z,32.70
2018-11-03T20:44:53.464Z,36.90
2018-11-03T20:47:22.106Z,35.47
2018-11-03T20:49:50.969Z,37.10
2018-11-03T20:52:19.389Z,33.00
2018-11-03T20:54:49.269Z,34.40
2018-11-03T20:57:17.730Z,41.83
2018-11-03T20:59:46.239Z,35.20
2018-11-03T21:02:14.753Z,37.93
2018-11-03T21:04:43.209Z,36.73
2018-11-03T21:07:11.706Z,32.47
2018-11-03T21:09:40.188Z,39.80
2018-11-03T21:12:08.695Z,33.57
2018-11-03T21:14:40.966Z,38.37
2018-11-03T21:17:09.403Z,34.67
2018-11-03T21:19:37.897Z,34.70
2018-11-03T21:22:09.147Z,38.20
2018-11-03T21:24:38.168Z,39.83
2018-11-03T21:27:07.986Z,44.40
2018-11-03T21:29:36.464Z,40.57
2018-11-03T21:32:05.448Z,43.40
2018-11-03T21:34:33.981Z,42.23
2018-11-03T21:37:02.618Z,40.37
2018-11-03T21:39:31.128Z,48.17
2018-11-03T21:42:03.605Z,38.17
2018-11-03T21:44:32.208Z,42.43
2018-11-03T21:47:00.732Z,36.30
2018-11-03T21:49:29.170Z,35.53
2018-11-03T21:51:57.628Z,40.07
2018-11-03T21:54:26.210Z,36.77
2018-11-03T21:56:54.850Z,38.83
2018-11-03T21:59:23.313Z,38.67
2018-11-03T22:01:51.775Z,38.27
2018-11-03T22:04:20.496Z,38.27
2018-11-03T22:06:48.960Z,50.80
2018-11-03T22:09:17.405Z,38.77
2018-11-03T22:11:58.631Z,51.30
2018-11-03T22:14:27.461Z,37.90
2018-11-03T22:16:55.936Z,43.03
2018-11-03T22:19:24.422Z,41.57
2018-11-03T22:21:52.964Z,45.17
2018-11-03T22:24:21.332Z,42.73
2018-11-03T22:26:49.837Z,42.90
2018-11-03T22:29:18.336Z,40.93
2018-11-03T22:31:46.912Z,41.93
2018-11-03T22:34:15.436Z,40.73
2018-11-03T22:36:43.945Z,38.73
2018-11-03T22:39:12.881Z,38.80
2018-11-03T22:41:41.503Z,41.57
2018-11-03T22:44:10.450Z,52.37
2018-11-03T22:46:38.974Z,44.20
2018-11-03T22:49:07.492Z,57.97
2018-11-03T22:51:36.046Z,48.87
2018-11-03T22:54:04.812Z,49.47
2018-11-03T22:56:33.359Z,45.53
2018-11-03T22:59:01.829Z,45.33
2018-11-03T23:01:30.288Z,47.67
2018-11-03T23:03:58.785Z,47.17
2018-11-03T23:06:27.251Z,51.03
2018-11-03T23:08:55.732Z,47.00
2018-11-03T23:11:24.229Z,52.03
2018-11-03T23:13:52.790Z,41.53
2018-11-03T23:16:21.266Z,40.73
2018-11-03T23:18:49.788Z,42.37
2018-11-03T23:21:18.248Z,36.33
2018-11-03T23:23:46.799Z,37.73
2018-11-03T23:26:15.301Z,42.83
2018-11-03T23:28:43.785Z,44.60
2018-11-03T23:31:12.252Z,44.93
2018-11-03T23:33:40.722Z,44.43
2018-11-03T23:36:09.214Z,48.23
2018-11-03T23:38:37.689Z,45.23
2018-11-03T23:41:06.250Z,47.03
2018-11-03T23:43:34.886Z,40.00
2018-11-03T23:46:03.372Z,40.70
2018-11-03T23:48:31.916Z,41.13
2018-11-03T23:51:00.393Z,37.77
2018-11-03T23:53:28.975Z,38.87
2018-11-03T23:55:57.598Z,38.50
2018-11-03T23:58:26.068Z,39.53
